Mc Cook Ben Nelson Regional Airport
KMCK : now visible

Airfield :











YOU CAN JOIN US ON...

 
LOGIN :

Register | Disclaimer

   EN    FR    IT 

 









Legend :    VFR   Marginal VFR   IFR   Intensive IFR   Very Intensive IFR
Visi :
Ceiling :
>= 8 km
>= 3000ft
5 to 8 km
1000 to 3000 ft
1500m to 5 km
500 to 1000 ft
800 to 1500m
200 to 500 ft
< 800m
< 200 ft
Symbols :   Thunderstorms  Fog  Heavy snow  Heavy precipitations  Wind > 20 kt






- Airport Elevation : 2583 ft


KMCK - Mc Cook Ben Nelson Regional

CURRENT METAR :
  • 280753Z AUTO 14003KT 10SM CLR 17/10 A2973 RMK AO2 SLP040 T01670100

EXPIRED METARs :
  • 280653Z AUTO 17006KT 10SM CLR 21/09 A2973 RMK AO2 SLP039 T02110094
  • 280553Z AUTO 00000KT 10SM CLR 21/11 A2974 RMK AO2 SLP040 T02110106 10333 20206 403500089 58004

TAF KMCK
Valid from the 28 at 06:00 until the 29 at 06:00 UTC


280520Z 2806/2906 VRB06KT P6SM BKN200
FM281700 15012KT P6SM SCT200
FM282100 20017KT P6SM SCT200
TEMPO 2823/2901 15012KT
FM290100 VRB06KT P6SM SCT180
KZDV FIR / North America



MET'MAP, your aeronautical weather chart ! - Copyright ORBIFLY December 2007 - Disclaimer

ORBIFLY MET'MAP TEAM :

Programming & Development : Alexandra Zaïnal
Original concept : Baudouin d'Aumeries
Technical & hardware support : Manuel Goepfert
Assistance : Marc-Olivier Méhu

Contact : metmap@orbifly.com




SOURCES & CREDITS :

   NOAA       Earth
Advisory